Time;durP1;ratioP1;P1;durP2;ratioP2;P2;SDS_P1;SDS_P2;PMS_P1;PMS_P2;Temp;Humidity;BMP_temperature;BMP_pressure;BME280_temperature;BME280_humidity;BME280_pressure;Samples;Min_cycle;Max_cycle;Signal;HPM_P1;HPM_P2
2023/12/24 00:01:21;;;;;;;13.60;3.97;;;;;;;18.54;68.34;100745.31;4973529;28;20089;-38
2023/12/24 00:03:47;;;;;;;10.50;4.07;;;;;;;18.53;68.51;100728.03;4957250;28;20022;-38
2023/12/24 00:06:12;;;;;;;13.15;3.63;;;;;;;18.53;68.50;100722.56;4958127;28;20278;-38
2023/12/24 00:08:37;;;;;;;12.27;3.63;;;;;;;18.54;68.41;100704.16;4974927;28;20045;-37
2023/12/24 00:11:05;;;;;;;10.48;3.78;;;;;;;18.53;68.35;100713.50;4956619;28;20022;-38
2023/12/24 00:13:31;;;;;;;13.93;3.55;;;;;;;18.53;68.52;100714.31;4976875;28;20030;-38
2023/12/24 00:15:57;;;;;;;11.35;3.60;;;;;;;18.53;68.31;100708.03;4976480;28;20026;-37
2023/12/24 00:18:22;;;;;;;7.78;3.17;;;;;;;18.51;68.38;100704.72;4976269;28;20026;-37
2023/12/24 00:20:48;;;;;;;11.73;3.50;;;;;;;18.49;68.69;100693.22;4944390;28;20030;-37
2023/12/24 00:23:13;;;;;;;9.52;3.58;;;;;;;18.48;68.46;100694.31;4971371;28;20418;-36
2023/12/24 00:25:39;;;;;;;13.10;3.50;;;;;;;18.46;68.54;100694.59;4973425;28;20145;-36
2023/12/24 00:28:05;;;;;;;10.85;3.60;;;;;;;18.46;68.72;100702.03;4969023;28;20045;-37
2023/12/24 00:30:31;;;;;;;10.35;3.42;;;;;;;18.46;68.75;100696.53;4982740;28;20156;-36
2023/12/24 00:32:58;;;;;;;10.38;3.70;;;;;;;18.44;68.71;100703.13;4986448;28;20427;-36
2023/12/24 00:35:24;;;;;;;10.43;3.38;;;;;;;18.46;68.64;100699.28;4983222;28;20057;-36
2023/12/24 00:37:50;;;;;;;13.77;3.58;;;;;;;18.44;68.56;100683.06;4971638;28;20067;-37
2023/12/24 00:40:16;;;;;;;10.35;3.50;;;;;;;18.43;68.53;100693.25;4978717;28;20030;-36
2023/12/24 00:42:42;;;;;;;12.05;3.33;;;;;;;18.41;68.84;100687.22;4986339;28;20045;-36
2023/12/24 00:45:08;;;;;;;8.68;3.42;;;;;;;18.41;69.01;100687.22;4986257;28;20077;-36
2023/12/24 00:47:34;;;;;;;8.38;3.10;;;;;;;18.41;69.03;100689.16;4962442;28;20029;-36
2023/12/24 00:49:59;;;;;;;10.05;3.10;;;;;;;18.39;69.00;100683.94;4985310;28;20474;-37
2023/12/24 00:52:25;;;;;;;9.57;2.95;;;;;;;18.40;69.02;100674.59;4965703;28;20531;-36
2023/12/24 00:54:50;;;;;;;11.73;3.20;;;;;;;18.38;69.28;100681.47;4962537;28;20030;-36
2023/12/24 00:57:16;;;;;;;9.57;3.10;;;;;;;18.35;69.33;100660.91;4984219;28;20461;-36
2023/12/24 00:59:41;;;;;;;14.20;3.80;;;;;;;18.39;69.54;100672.97;4987246;28;20034;-36
2023/12/24 01:02:06;;;;;;;10.65;3.10;;;;;;;18.38;69.31;100665.84;4988738;28;20031;-36
2023/12/24 01:04:32;;;;;;;10.18;3.50;;;;;;;18.37;69.60;100666.94;4984270;28;20419;-36
2023/12/24 01:06:57;;;;;;;8.82;2.95;;;;;;;18.37;69.68;100663.38;4988570;28;20030;-36
2023/12/24 01:09:23;;;;;;;7.82;3.17;;;;;;;18.36;69.71;100681.75;4986918;28;20040;-37
2023/12/24 01:11:49;;;;;;;7.65;2.58;;;;;;;18.35;69.71;100666.41;4980360;28;20038;-36
2023/12/24 01:14:14;;;;;;;9.98;3.13;;;;;;;18.36;69.71;100665.28;4987856;28;20042;-36
2023/12/24 01:16:40;;;;;;;9.25;3.10;;;;;;;18.34;69.91;100681.22;4979752;28;20408;-37
2023/12/24 01:19:06;;;;;;;10.80;3.17;;;;;;;18.34;69.95;100683.16;4987824;28;20030;-37
2023/12/24 01:21:31;;;;;;;8.75;3.30;;;;;;;18.34;70.13;100683.97;4985317;28;20045;-37
2023/12/24 01:23:56;;;;;;;13.57;3.25;;;;;;;18.32;70.56;100669.72;4984906;28;20029;-38
2023/12/24 01:26:22;;;;;;;13.48;3.40;;;;;;;18.32;70.55;100666.13;4984919;28;20398;-38
2023/12/24 01:28:47;;;;;;;12.75;3.40;;;;;;;18.31;70.64;100668.06;4993787;28;20069;-37
2023/12/24 01:31:13;;;;;;;10.02;2.97;;;;;;;18.30;70.81;100662.88;4998757;28;20230;-38
2023/12/24 01:33:38;;;;;;;9.95;3.05;;;;;;;18.31;71.11;100653.53;4994458;28;20442;-38
2023/12/24 01:36:04;;;;;;;9.07;3.13;;;;;;;18.30;71.14;100643.69;4986659;28;20348;-38
2023/12/24 01:38:29;;;;;;;11.13;3.63;;;;;;;18.31;71.43;100639.81;4995445;28;20108;-38
2023/12/24 01:40:55;;;;;;;13.15;3.20;;;;;;;18.33;71.19;100643.09;5014873;28;20406;-36
2023/12/24 01:43:21;;;;;;;7.93;2.60;;;;;;;18.34;71.26;100639.25;4981725;28;20041;-38
2023/12/24 01:45:46;;;;;;;9.13;2.80;;;;;;;18.33;71.08;100627.47;4990875;28;20044;-36
2023/12/24 01:48:15;;;;;;;9.63;3.15;;;;;;;18.34;71.42;100620.84;4999891;28;20056;-37
2023/12/24 01:50:43;;;;;;;8.48;3.05;;;;;;;18.32;71.68;100620.34;4998346;28;20179;-36
2023/12/24 01:53:08;;;;;;;10.10;2.63;;;;;;;18.32;71.61;100620.34;4994974;28;20434;-37
2023/12/24 01:55:33;;;;;;;13.07;3.58;;;;;;;18.32;71.82;100619.50;5000125;28;20018;-38
2023/12/24 01:57:59;;;;;;;9.05;3.15;;;;;;;18.28;71.95;100608.28;4999575;28;20076;-38
2023/12/24 02:00:24;;;;;;;10.80;3.22;;;;;;;18.29;72.13;100601.69;4980633;28;20029;-38
2023/12/24 02:02:50;;;;;;;9.55;3.00;;;;;;;18.29;72.08;100593.47;4986745;28;20121;-38
2023/12/24 02:05:16;;;;;;;9.63;2.95;;;;;;;18.28;72.13;100583.59;4994763;28;20025;-36
2023/12/24 02:07:42;;;;;;;11.80;2.95;;;;;;;18.27;72.39;100591.00;4972192;28;20033;-36
2023/12/24 02:10:08;;;;;;;13.63;3.83;;;;;;;18.26;72.94;100592.09;5002357;28;20028;-36
2023/12/24 02:12:34;;;;;;;9.13;2.70;;;;;;;18.27;72.96;100593.75;4975147;28;20039;-36
2023/12/24 02:15:00;;;;;;;9.63;3.03;;;;;;;18.25;73.20;100590.47;4999913;28;20057;-37
2023/12/24 02:17:25;;;;;;;9.75;3.17;;;;;;;18.24;72.98;100596.25;4998050;28;20041;-35
2023/12/24 02:19:51;;;;;;;11.65;3.40;;;;;;;18.23;72.96;100595.44;4981405;28;20515;-36
2023/12/24 02:22:16;;;;;;;10.00;2.90;;;;;;;18.24;73.13;100593.50;4998144;28;20092;-38
2023/12/24 02:24:42;;;;;;;10.10;2.92;;;;;;;18.23;73.51;100583.63;4998321;28;20125;-36
2023/12/24 02:27:22;;;;;;;12.02;2.90;;;;;;;18.24;73.33;100588.81;4993994;28;20054;-35
2023/12/24 02:29:50;;;;;;;6.78;2.45;;;;;;;18.24;73.50;100579.78;5000211;28;20538;-36
2023/12/24 02:32:17;;;;;;;6.60;2.20;;;;;;;18.25;73.66;100581.44;5002214;28;20247;-36
2023/12/24 02:34:45;;;;;;;7.90;2.05;;;;;;;18.24;73.62;100561.38;4983775;28;20141;-37
2023/12/24 02:37:11;;;;;;;8.60;2.50;;;;;;;18.24;73.99;100563.31;5000345;28;20436;-38
2023/12/24 02:39:38;;;;;;;7.38;2.40;;;;;;;18.24;73.98;100566.88;5002213;28;20029;-37
2023/12/24 02:42:04;;;;;;;6.97;2.20;;;;;;;18.22;74.15;100555.38;4980475;28;20534;-36
2023/12/24 02:44:30;;;;;;;7.10;2.38;;;;;;;18.21;74.17;100540.03;4993983;28;20219;-36
2023/12/24 02:46:55;;;;;;;7.32;2.50;;;;;;;18.20;74.24;100552.09;4996931;28;20034;-37
2023/12/24 02:49:21;;;;;;;6.28;2.05;;;;;;;18.19;74.59;100549.66;5000247;28;20064;-38
2023/12/24 02:51:46;;;;;;;6.32;2.03;;;;;;;18.18;74.68;100546.06;5000011;28;20105;-36
2023/12/24 02:54:12;;;;;;;7.70;2.20;;;;;;;18.19;74.89;100552.41;4996746;28;20041;-37
2023/12/24 02:56:37;;;;;;;5.50;2.20;;;;;;;18.19;74.66;100538.69;5003311;28;20080;-37
2023/12/24 02:59:03;;;;;;;6.90;2.53;;;;;;;18.19;74.75;100534.00;4995942;28;20025;-38
2023/12/24 03:01:29;;;;;;;8.00;2.30;;;;;;;18.19;74.76;100533.19;4985955;28;20040;-37
2023/12/24 03:03:55;;;;;;;6.55;2.25;;;;;;;18.20;75.11;100529.34;4999056;28;20025;-36
2023/12/24 03:06:20;;;;;;;8.35;2.50;;;;;;;18.20;75.09;100524.66;4997125;28;20278;-36
2023/12/24 03:08:46;;;;;;;5.43;2.17;;;;;;;18.19;75.17;100517.53;5000016;28;20033;-37
2023/12/24 03:11:11;;;;;;;5.13;1.90;;;;;;;18.21;75.25;100511.75;4987309;28;20026;-37
2023/12/24 03:13:36;;;;;;;5.85;2.20;;;;;;;18.21;75.35;100509.84;4998207;28;20022;-37
2023/12/24 03:16:02;;;;;;;9.13;2.35;;;;;;;18.19;75.48;100509.31;4985310;28;20045;-37
2023/12/24 03:18:27;;;;;;;7.18;2.28;;;;;;;18.18;75.49;100507.66;5000183;28;20037;-38
2023/12/24 03:20:52;;;;;;;6.18;2.15;;;;;;;18.18;75.41;100513.16;4997810;28;20089;-38
2023/12/24 03:23:18;;;;;;;4.43;2.10;;;;;;;18.20;75.80;100507.41;5002897;28;20060;-37
2023/12/24 03:25:43;;;;;;;7.65;2.28;;;;;;;18.19;75.68;100505.75;5003097;28;20026;-37
2023/12/24 03:28:09;;;;;;;7.20;2.47;;;;;;;18.19;75.74;100497.53;5001259;28;20113;-37
2023/12/24 03:30:34;;;;;;;5.55;1.90;;;;;;;18.18;75.69;100513.16;4995900;28;20040;-37
2023/12/24 03:32:59;;;;;;;5.95;2.20;;;;;;;18.19;75.89;100505.75;4998654;28;20364;-37
2023/12/24 03:35:25;;;;;;;3.88;1.80;;;;;;;18.19;76.04;100498.34;4996305;28;20065;-37
2023/12/24 03:37:50;;;;;;;6.97;2.30;;;;;;;18.19;76.08;100501.09;4998453;28;20069;-37
2023/12/24 03:40:15;;;;;;;6.70;2.20;;;;;;;18.18;76.26;100493.97;4997605;28;20062;-38
2023/12/24 03:42:41;;;;;;;11.15;2.22;;;;;;;18.19;76.30;100486.56;5001400;28;20302;-37
2023/12/24 03:45:06;;;;;;;6.97;1.98;;;;;;;18.19;76.55;100490.13;4995244;28;20032;-38
2023/12/24 03:47:32;;;;;;;6.30;2.03;;;;;;;18.18;76.49;100487.66;5001966;28;20112;-38
2023/12/24 03:49:57;;;;;;;8.60;2.25;;;;;;;18.18;76.62;100490.41;4985698;28;20447;-38
2023/12/24 03:52:22;;;;;;;3.92;1.92;;;;;;;18.15;76.85;100489.06;4998630;28;20033;-36
2023/12/24 03:54:48;;;;;;;5.43;1.88;;;;;;;18.14;76.72;100492.91;4996261;28;20161;-37
2023/12/24 03:57:13;;;;;;;7.05;2.20;;;;;;;18.14;76.85;100490.16;5007915;28;20485;-37
2023/12/24 03:59:39;;;;;;;5.22;1.95;;;;;;;18.14;76.81;100503.06;4994469;28;20569;-37
2023/12/24 04:02:04;;;;;;;6.60;2.10;;;;;;;18.13;76.80;100494.00;4985161;28;20133;-36
2023/12/24 04:04:30;;;;;;;11.18;2.63;;;;;;;18.15;77.15;100496.44;5000528;28;20113;-36
2023/12/24 04:06:55;;;;;;;8.50;2.40;;;;;;;18.16;76.96;100495.34;4998163;28;20439;-36
2023/12/24 04:09:21;;;;;;;6.70;2.08;;;;;;;18.16;77.17;100495.34;4994044;28;20041;-37
2023/12/24 04:11:50;;;;;;;7.65;2.28;;;;;;;18.17;77.40;100488.75;5001126;28;20049;-37
2023/12/24 04:14:15;;;;;;;6.72;2.30;;;;;;;18.16;77.38;100485.22;5000470;28;20037;-37
2023/12/24 04:16:41;;;;;;;8.10;2.70;;;;;;;18.17;77.59;100488.75;4994350;28;20110;-36
2023/12/24 04:19:07;;;;;;;6.20;2.30;;;;;;;18.15;77.49;100489.06;4984373;28;20040;-38
2023/12/24 04:21:33;;;;;;;8.27;2.40;;;;;;;18.16;77.79;100481.63;4999855;28;20383;-38
2023/12/24 04:23:59;;;;;;;5.65;2.10;;;;;;;18.14;77.73;100486.59;4987275;28;20037;-36
2023/12/24 04:26:25;;;;;;;8.43;2.60;;;;;;;18.14;77.78;100483.88;4995473;28;20482;-37
2023/12/24 04:28:51;;;;;;;8.55;2.85;;;;;;;18.12;78.19;100476.75;4995462;28;20169;-36
2023/12/24 04:31:16;;;;;;;10.38;2.92;;;;;;;18.15;78.07;100485.47;4998124;28;20033;-35
2023/12/24 04:33:42;;;;;;;8.82;2.17;;;;;;;18.12;78.46;100487.72;4993272;28;20091;-36
2023/12/24 04:36:08;;;;;;;8.68;2.55;;;;;;;18.12;78.47;100490.44;4999476;28;20367;-36
2023/12/24 04:38:33;;;;;;;8.50;2.53;;;;;;;18.16;78.35;100487.13;4997105;28;20475;-37
2023/12/24 04:40:59;;;;;;;5.88;2.33;;;;;;;18.20;78.19;100480.78;4980625;28;20135;-37
2023/12/24 04:43:25;;;;;;;7.78;2.58;;;;;;;18.27;78.19;100488.66;4995322;28;20034;-36
2023/12/24 04:45:50;;;;;;;9.25;2.38;;;;;;;18.33;77.82;100489.47;4994603;28;20026;-36
2023/12/24 04:48:16;;;;;;;5.65;2.20;;;;;;;18.38;77.83;100482.00;4999154;28;20052;-37
2023/12/24 04:50:41;;;;;;;5.60;2.33;;;;;;;18.46;77.65;100483.31;4996867;28;20410;-37
2023/12/24 04:53:07;;;;;;;5.32;2.10;;;;;;;18.54;77.92;100481.84;4999602;28;20085;-38
2023/12/24 04:55:32;;;;;;;7.50;2.55;;;;;;;18.62;77.87;100475.75;4996629;28;20026;-38
2023/12/24 04:57:57;;;;;;;6.50;2.33;;;;;;;18.71;77.69;100474.00;4986633;28;20038;-37
2023/12/24 05:00:23;;;;;;;7.68;2.50;;;;;;;18.81;77.67;100466.75;4997987;28;20025;-38
2023/12/24 05:02:48;;;;;;;5.97;2.45;;;;;;;18.92;77.74;100488.38;5000749;28;20022;-37
2023/12/24 05:05:14;;;;;;;4.90;2.00;;;;;;;19.02;77.41;100468.22;4999137;28;20104;-37
2023/12/24 05:07:40;;;;;;;8.13;2.90;;;;;;;19.16;77.01;100465.56;4991872;28;20034;-36
2023/12/24 05:10:06;;;;;;;8.48;2.80;;;;;;;19.26;77.01;100456.38;4996776;28;20022;-37
2023/12/24 05:12:33;;;;;;;9.57;2.90;;;;;;;19.37;76.79;100460.66;4983008;28;20104;-36
2023/12/24 05:15:01;;;;;;;6.85;2.55;;;;;;;19.48;76.84;100464.03;4995059;28;20037;-36
2023/12/24 05:17:26;;;;;;;8.27;3.08;;;;;;;19.58;76.38;100448.53;4998364;28;20030;-37
2023/12/24 05:19:51;;;;;;;7.80;2.70;;;;;;;19.66;76.26;100442.38;4996463;28;20046;-36
2023/12/24 05:22:17;;;;;;;10.43;3.00;;;;;;;19.77;76.24;100446.59;4999309;28;20018;-37
2023/12/24 05:24:42;;;;;;;7.50;2.50;;;;;;;19.87;75.26;100457.47;5003005;28;20030;-38
2023/12/24 05:27:08;;;;;;;9.02;3.05;;;;;;;19.95;75.58;100447.72;4996430;28;20124;-36
2023/12/24 05:29:34;;;;;;;10.32;3.05;;;;;;;20.03;75.10;100458.03;5001668;28;20274;-37
2023/12/24 05:31:59;;;;;;;11.18;3.60;;;;;;;20.06;74.84;100442.91;5001175;28;20053;-37
2023/12/24 05:34:25;;;;;;;8.40;3.13;;;;;;;20.06;75.12;100445.63;4983800;28;20060;-38
2023/12/24 05:36:50;;;;;;;7.93;2.80;;;;;;;20.06;74.87;100444.81;5008369;28;20335;-39
2023/12/24 05:39:15;;;;;;;10.70;3.72;;;;;;;20.03;75.13;100427.78;5001753;28;20088;-37
2023/12/24 05:41:44;;;;;;;12.07;3.33;;;;;;;20.03;74.74;100435.22;4971782;28;20048;-38
2023/12/24 05:44:10;;;;;;;10.05;3.45;;;;;;;19.98;74.66;100438.88;4996234;28;20550;-37
2023/12/24 05:46:36;;;;;;;9.35;3.05;;;;;;;19.94;74.87;100435.09;4996587;28;20053;-36
2023/12/24 05:49:01;;;;;;;9.65;2.90;;;;;;;19.91;74.83;100430.19;4999895;28;20038;-36
2023/12/24 05:51:27;;;;;;;10.10;3.30;;;;;;;19.86;75.11;100427.50;4997576;28;20037;-36
2023/12/24 05:53:52;;;;;;;6.55;2.80;;;;;;;19.83;75.14;100436.34;4993751;28;20607;-36
2023/12/24 05:56:18;;;;;;;11.38;3.53;;;;;;;19.78;75.45;100411.66;5000992;28;20573;-36
2023/12/24 05:58:43;;;;;;;10.80;3.40;;;;;;;19.76;75.30;100408.41;5002482;28;20068;-36
2023/12/24 06:01:09;;;;;;;9.57;3.33;;;;;;;19.71;75.57;100401.84;4997658;28;20041;-36
2023/12/24 06:03:34;;;;;;;12.23;3.33;;;;;;;19.68;75.15;100396.13;4980125;28;20416;-36
2023/12/24 06:05:59;;;;;;;9.80;3.30;;;;;;;19.66;75.83;100401.94;5010281;28;20022;-37
2023/12/24 06:08:25;;;;;;;11.90;3.08;;;;;;;19.64;75.57;100409.66;4979957;28;20025;-37
2023/12/24 06:10:50;;;;;;;9.00;2.90;;;;;;;19.62;75.85;100411.91;4983896;28;20022;-37
2023/12/24 06:13:15;;;;;;;10.40;3.10;;;;;;;19.62;75.87;100403.66;4997732;28;20543;-36
2023/12/24 06:15:41;;;;;;;8.68;2.90;;;;;;;19.62;75.96;100409.16;4985077;28;20111;-37
2023/12/24 06:18:07;;;;;;;11.00;3.03;;;;;;;19.63;75.84;100397.06;4987099;28;20030;-38
2023/12/24 06:20:33;;;;;;;8.63;3.25;;;;;;;19.65;75.85;100408.56;4995778;28;20033;-37
2023/12/24 06:22:59;;;;;;;10.05;3.70;;;;;;;19.67;76.34;100411.03;5015745;28;20021;-37
2023/12/24 06:25:25;;;;;;;10.18;3.30;;;;;;;19.68;76.22;100418.97;4999823;28;20033;-37
2023/12/24 06:27:50;;;;;;;10.93;3.10;;;;;;;19.69;76.02;100412.34;4981583;28;20041;-36
2023/12/24 06:30:16;;;;;;;10.23;2.63;;;;;;;19.71;76.37;100417.56;4998960;28;20033;-36
2023/12/24 06:32:46;;;;;;;9.25;3.25;;;;;;;19.72;76.35;100422.75;5000783;28;20037;-36
2023/12/24 06:35:11;;;;;;;8.80;2.88;;;;;;;19.72;76.06;100421.94;4997286;28;20034;-36
2023/12/24 06:37:37;;;;;;;9.77;3.47;;;;;;;19.71;76.27;100421.09;5002965;28;20386;-36
2023/12/24 06:40:03;;;;;;;8.77;2.88;;;;;;;19.71;76.16;100421.09;4993971;28;20684;-37
2023/12/24 06:42:29;;;;;;;10.32;3.00;;;;;;;19.69;76.04;100398.63;5000107;28;20030;-37
2023/12/24 06:44:54;;;;;;;9.20;3.00;;;;;;;19.67;76.58;100417.31;4997715;28;20506;-38
2023/12/24 06:47:19;;;;;;;11.80;3.13;;;;;;;19.66;76.08;100409.38;4997134;28;20026;-37
2023/12/24 06:49:45;;;;;;;11.80;3.30;;;;;;;19.64;76.41;100417.09;4999928;28;20023;-36
2023/12/24 06:52:11;;;;;;;11.07;3.70;;;;;;;19.63;76.39;100418.22;5002076;28;20124;-36
2023/12/24 06:54:36;;;;;;;6.95;2.92;;;;;;;19.61;76.17;100421.28;4996903;28;20026;-37
2023/12/24 06:57:03;;;;;;;9.15;3.00;;;;;;;19.59;76.54;100418.00;5002115;28;20060;-37
2023/12/24 06:59:28;;;;;;;9.40;2.97;;;;;;;19.58;76.47;100407.31;5001824;28;20063;-38
2023/12/24 07:01:54;;;;;;;8.40;3.00;;;;;;;19.58;76.62;100419.09;5002537;28;20419;-36
2023/12/24 07:04:19;;;;;;;9.63;3.45;;;;;;;19.55;76.48;100412.28;5002829;28;20025;-39
2023/12/24 07:06:44;;;;;;;9.77;3.25;;;;;;;19.54;76.44;100407.88;4981624;28;20034;-38
2023/12/24 07:09:11;;;;;;;9.38;3.30;;;;;;;19.52;76.42;100409.31;4999830;28;20025;-37
2023/12/24 07:11:36;;;;;;;9.00;3.30;;;;;;;19.53;76.49;100414.53;4998877;28;20303;-37
2023/12/24 07:14:01;;;;;;;13.30;3.13;;;;;;;19.51;76.92;100418.66;5002183;28;20671;-38
2023/12/24 07:16:27;;;;;;;10.18;3.08;;;;;;;19.49;76.62;100409.91;5000813;28;20057;-37
2023/12/24 07:18:52;;;;;;;10.18;3.33;;;;;;;19.48;76.68;100427.50;4994420;28;20556;-37
2023/12/24 07:21:18;;;;;;;9.52;3.50;;;;;;;19.46;76.97;100405.84;5000418;28;20018;-37
2023/12/24 07:23:43;;;;;;;13.63;3.42;;;;;;;19.45;77.20;100415.19;4997058;28;20029;-39
2023/12/24 07:26:08;;;;;;;8.18;2.72;;;;;;;19.43;77.21;100409.16;4996533;28;20060;-37
2023/12/24 07:28:34;;;;;;;11.23;3.00;;;;;;;19.42;77.12;100406.72;5001885;28;20081;-37
2023/12/24 07:31:00;;;;;;;7.68;2.55;;;;;;;19.38;77.43;100401.78;4999228;28;20402;-38
2023/12/24 07:33:25;;;;;;;7.72;2.90;;;;;;;19.37;77.53;100404.84;5000218;28;20028;-38
2023/12/24 07:35:51;;;;;;;12.95;3.03;;;;;;;19.34;77.36;100398.03;4985347;28;20192;-38
2023/12/24 07:38:16;;;;;;;9.30;2.70;;;;;;;19.34;77.52;100406.25;5002721;28;20018;-38
2023/12/24 07:40:41;;;;;;;9.52;3.60;;;;;;;19.33;77.99;100410.13;5002869;28;20028;-37
2023/12/24 07:43:07;;;;;;;8.85;2.80;;;;;;;19.29;78.12;100403.59;4993904;28;20453;-38
2023/12/24 07:45:32;;;;;;;7.60;2.97;;;;;;;19.27;78.55;100399.50;5004248;28;20041;-37
2023/12/24 07:47:57;;;;;;;9.80;3.17;;;;;;;19.26;78.36;100401.41;5004901;28;20368;-38
2023/12/24 07:50:23;;;;;;;8.50;3.35;;;;;;;19.24;78.44;100392.69;5006472;28;20026;-38
2023/12/24 07:52:48;;;;;;;10.98;2.90;;;;;;;19.23;78.75;100391.84;5003580;28;20030;-37
2023/12/24 07:55:14;;;;;;;8.23;2.80;;;;;;;19.21;78.56;100394.09;5002369;28;20474;-38
2023/12/24 07:57:39;;;;;;;12.85;3.63;;;;;;;19.21;78.61;100390.50;5000175;28;20030;-36
2023/12/24 08:00:08;;;;;;;9.57;3.38;;;;;;;19.20;78.73;100400.69;5002067;28;20021;-37
2023/12/24 08:02:33;;;;;;;10.05;3.28;;;;;;;19.20;79.11;100405.34;4986176;28;20041;-35
2023/12/24 08:04:59;;;;;;;10.38;3.20;;;;;;;19.19;79.21;100392.72;5006200;28;20065;-36
2023/12/24 08:07:25;;;;;;;14.20;3.70;;;;;;;19.17;78.91;100406.75;4979354;28;20028;-36
2023/12/24 08:09:50;;;;;;;16.40;3.70;;;;;;;19.17;79.40;100398.53;5010012;28;20041;-36
2023/12/24 08:12:16;;;;;;;10.80;3.25;;;;;;;19.14;79.59;100382.66;5008138;28;20041;-36
2023/12/24 08:14:41;;;;;;;12.43;3.38;;;;;;;19.14;79.62;100401.03;5006259;28;20029;-38
2023/12/24 08:17:07;;;;;;;14.18;4.25;;;;;;;19.13;79.94;100399.41;4999372;28;20030;-38
2023/12/24 08:19:32;;;;;;;12.10;3.15;;;;;;;19.11;79.83;100399.72;5013987;28;20065;-38
2023/12/24 08:21:58;;;;;;;13.38;3.90;;;;;;;19.10;80.13;100406.31;4979827;28;20026;-38
2023/12/24 08:24:23;;;;;;;14.50;3.30;;;;;;;19.08;80.32;100406.59;5009891;28;20444;-37
2023/12/24 08:26:49;;;;;;;11.18;3.60;;;;;;;19.06;80.07;100400.59;4995133;28;20073;-37
2023/12/24 08:29:14;;;;;;;14.18;4.00;;;;;;;19.03;80.31;100403.94;4981564;28;20022;-38
2023/12/24 08:31:40;;;;;;;12.82;4.28;;;;;;;19.01;79.95;100410.84;4982601;28;20065;-38
2023/12/24 08:34:06;;;;;;;12.80;3.33;;;;;;;19.00;79.98;100406.44;4982653;28;20097;-38
2023/12/24 08:36:32;;;;;;;17.67;3.80;;;;;;;18.98;80.25;100390.28;4963830;28;20042;-38
2023/12/24 08:38:57;;;;;;;13.60;3.35;;;;;;;18.97;80.40;100398.78;4981071;28;20042;-37
2023/12/24 08:41:22;;;;;;;14.48;3.60;;;;;;;18.97;80.40;100398.78;4980108;28;20029;-37
2023/12/24 08:43:48;;;;;;;11.45;3.35;;;;;;;18.96;80.48;100419.94;4981585;28;20109;-38
2023/12/24 08:46:13;;;;;;;10.85;3.53;;;;;;;18.94;80.69;100410.38;4980227;28;20038;-38
2023/12/24 08:48:38;;;;;;;16.30;3.85;;;;;;;18.93;80.80;100409.53;4982277;28;20372;-38
2023/12/24 08:51:04;;;;;;;15.07;3.47;;;;;;;18.92;80.67;100399.69;4963654;28;20101;-38
2023/12/24 08:53:29;;;;;;;18.90;4.07;;;;;;;18.89;81.03;100398.28;4963343;28;20030;-38
2023/12/24 08:55:55;;;;;;;15.88;3.50;;;;;;;18.90;80.79;100390.88;4985343;28;20030;-38
2023/12/24 08:58:20;;;;;;;15.77;3.67;;;;;;;18.87;81.03;100378.56;4986685;28;20220;-39
2023/12/24 09:00:45;;;;;;;14.18;3.83;;;;;;;18.86;81.16;100382.41;4984251;28;20125;-37
2023/12/24 09:03:11;;;;;;;12.48;3.58;;;;;;;18.84;81.24;100375.59;4983920;28;20033;-37
2023/12/24 09:05:37;;;;;;;13.57;3.80;;;;;;;18.82;81.35;100395.09;4979748;28;20041;-36
2023/12/24 09:08:03;;;;;;;14.20;3.83;;;;;;;18.82;81.45;100389.63;4969547;28;20562;-38
2023/12/24 09:10:28;;;;;;;15.65;4.22;;;;;;;18.81;81.66;100389.88;4981692;28;20026;-38
2023/12/24 09:12:54;;;;;;;12.43;3.85;;;;;;;18.79;81.72;100373.72;4986682;28;20138;-37
2023/12/24 09:15:19;;;;;;;16.30;4.18;;;;;;;18.79;81.83;100381.16;4985716;28;20073;-35
2023/12/24 09:17:44;;;;;;;17.17;3.72;;;;;;;18.78;82.01;100396.78;4982317;28;20030;-37
2023/12/24 09:20:10;;;;;;;15.93;3.67;;;;;;;18.76;81.88;100382.53;4985095;28;20033;-39
2023/12/24 09:22:36;;;;;;;16.50;3.70;;;;;;;18.75;81.71;100389.97;4986503;28;20049;-38
2023/12/24 09:25:01;;;;;;;11.18;3.92;;;;;;;18.74;81.86;100371.03;4982647;28;20030;-38
2023/12/24 09:27:26;;;;;;;13.77;3.65;;;;;;;18.72;81.79;100354.88;4990824;28;20053;-37
2023/12/24 09:29:52;;;;;;;15.73;4.18;;;;;;;18.72;82.02;100354.88;4995520;28;20033;-37
2023/12/24 09:32:17;;;;;;;19.00;4.35;;;;;;;18.71;82.29;100350.47;4996683;28;20334;-39
2023/12/24 09:34:44;;;;;;;18.92;3.88;;;;;;;18.73;82.18;100366.66;5000209;28;20060;-37
2023/12/24 09:37:11;;;;;;;16.63;4.10;;;;;;;18.72;82.25;100352.13;4997509;28;20281;-37
2023/12/24 09:39:36;;;;;;;15.25;4.13;;;;;;;18.73;82.38;100383.13;4975911;28;20068;-38
2023/12/24 09:42:02;;;;;;;18.70;4.18;;;;;;;18.73;82.36;100380.38;4991174;28;20515;-38
2023/12/24 09:44:27;;;;;;;14.68;3.40;;;;;;;18.71;82.41;100372.44;4993494;28;20058;-38
2023/12/24 09:46:53;;;;;;;16.23;4.13;;;;;;;18.71;82.51;100352.41;4994165;28;20053;-39
2023/12/24 09:49:18;;;;;;;18.27;4.15;;;;;;;18.69;82.94;100366.41;4996580;28;20143;-38
2023/12/24 09:51:43;;;;;;;18.20;4.88;;;;;;;18.70;82.97;100381.78;4991890;28;20019;-38
2023/12/24 09:54:09;;;;;;;17.92;4.75;;;;;;;18.69;82.94;100373.84;4998336;28;20041;-38
2023/12/24 09:56:35;;;;;;;14.77;4.13;;;;;;;18.69;83.11;100379.34;4994780;28;20022;-38
2023/12/24 09:59:00;;;;;;;18.90;3.95;;;;;;;18.69;82.93;100391.13;4996802;28;20562;-37
2023/12/24 10:01:26;;;;;;;15.73;4.75;;;;;;;18.68;83.08;100388.69;4995246;28;20928;-38
2023/12/24 10:03:51;;;;;;;20.52;5.20;;;;;;;18.67;83.30;100400.75;4999073;28;20022;-38
2023/12/24 10:06:17;;;;;;;19.20;4.30;;;;;;;18.67;83.28;100396.09;4992200;28;20081;-38
2023/12/24 10:08:43;;;;;;;19.45;4.43;;;;;;;18.67;83.52;100409.00;4992062;28;20458;-39
2023/12/24 10:11:13;;;;;;;17.10;4.25;;;;;;;18.64;83.48;100393.94;4998397;28;20030;-38
2023/12/24 10:13:38;;;;;;;19.63;4.60;;;;;;;18.64;83.49;100391.19;4999325;28;20061;-39
2023/12/24 10:16:05;;;;;;;18.75;4.50;;;;;;;18.64;83.77;100393.09;4983148;28;20068;-38
2023/12/24 10:18:31;;;;;;;15.32;4.18;;;;;;;18.64;83.79;100396.69;4988478;28;20464;-37
2023/12/24 10:21:06;;;;;;;24.65;5.45;;;;;;;18.65;83.93;100381.84;4995953;28;20030;-37
2023/12/24 10:23:32;;;;;;;22.15;4.70;;;;;;;18.65;83.91;100386.50;4995587;28;20426;-37
2023/12/24 10:26:02;;;;;;;20.88;4.72;;;;;;;18.64;83.87;100382.97;4977862;28;20391;-36
2023/12/24 10:28:28;;;;;;;20.58;4.32;;;;;;;18.64;83.95;100379.38;5003342;28;20050;-36
2023/12/24 10:31:14;;;;;;;18.60;4.43;;;;;;;18.63;83.85;100380.50;5001469;28;20379;-37
2023/12/24 10:33:40;;;;;;;14.52;4.60;;;;;;;18.62;84.22;100396.16;5001344;28;20117;-36
2023/12/24 10:36:06;;;;;;;19.35;4.63;;;;;;;18.61;84.33;100389.00;4999951;28;20105;-37
2023/12/24 10:38:32;;;;;;;13.55;3.65;;;;;;;18.62;84.48;100384.38;5004121;28;20100;-37
2023/12/24 10:40:58;;;;;;;15.35;3.60;;;;;;;18.59;84.40;100383.03;5003522;28;20072;-37
2023/12/24 10:43:23;;;;;;;14.85;4.00;;;;;;;18.58;84.59;100376.69;5004504;28;20038;-36
2023/12/24 10:45:49;;;;;;;16.17;4.30;;;;;;;18.57;84.75;100374.25;5001267;28;20113;-37
2023/12/24 10:48:15;;;;;;;11.55;3.63;;;;;;;18.56;84.72;100364.38;5010087;28;20033;-38
2023/12/24 10:50:40;;;;;;;15.07;3.95;;;;;;;18.56;85.20;100351.47;4987199;28;20014;-36
2023/12/24 10:53:05;;;;;;;13.88;4.15;;;;;;;18.57;85.29;100344.06;5003183;28;20950;-37
2023/12/24 10:55:33;;;;;;;14.38;3.88;;;;;;;18.56;85.35;100337.75;5000635;28;20032;-37
2023/12/24 10:58:09;;;;;;;12.32;3.75;;;;;;;18.57;85.43;100335.84;4985977;28;20810;-38
2023/12/24 11:00:35;;;;;;;15.27;4.28;;;;;;;18.57;85.39;100328.41;4999832;28;21289;-37
2023/12/24 11:03:00;;;;;;;14.43;4.10;;;;;;;18.56;85.11;100337.75;5002124;28;20369;-37
2023/12/24 11:05:45;;;;;;;14.18;3.90;;;;;;;18.57;85.51;100336.63;5001622;28;20113;-37
2023/12/24 11:08:19;;;;;;;14.23;4.68;;;;;;;18.57;85.54;100320.16;5001109;28;20029;-38
2023/12/24 11:10:52;;;;;;;11.43;3.20;;;;;;;18.58;85.24;100326.50;5002223;28;20033;-37
2023/12/24 11:13:33;;;;;;;14.18;3.95;;;;;;;18.59;85.92;100323.44;5006389;28;20308;-36
2023/12/24 11:15:58;;;;;;;12.98;3.50;;;;;;;18.60;85.75;100325.09;5000223;28;20498;-37